მეტეოროლოგიური შეტყობინებები

მეტეოსამსახური

FTGG31 UGTB 141100

მოქმედების ლოკალური ვადა 14 ივლისი 16:00 : 15 ივლისი 16:00
GG UGTBMAIL
141104 UGTBYMYX
FTGG31 UGTB 141100
TAF UGKO 141100Z 1412/1512 26007KT CAVOK TX33/1412Z TN22/1502Z TEMPO
1412/1418 25017KT SCT060 TEMPO 1500/1504 BKN050 TEMPO 1505/1510
08012KT=
TAF UGSB 141100Z 1412/1512 22007KT 9999 SCT018 BKN050 TX28/1511Z
TN23/1500Z PROB40 TEMPO 1414/1420 VRB12KT TSRA SCT010 BKN025CB
BECMG 1419/1421 13010KT TEMPO 1420/1503 VRB12KT TSRA SCT010
BKN025CB BECMG 1505/1507 23007KT=
TAF UGTB 141100Z 1412/1512 17008KT 9999 FEW052 SCT060 TX30/1512Z
TN22/1502Z=

FAGG50 UGTB 141030

მოქმედების ლოკალური ვადა 14 ივლისი 16:00 : 14 ივლისი 22:00
GG UGTBMAIL
141030 UGTBYMYX
FAGG50 UGTB 141030
UGGG GAMET VALID 141200/141800 UGTB-
UGGG TBILISI FIR BLW FL150
SECN I
SIG WX: A2 A5 ISOL TS
MT OBSC: 15/18 S OF N4200 AND W OF EO4420
SIG CLD: A5 ISOL CB 800/30000FT AGL
15/18 S OF N4200 AND W OF EO4420 ISOL CB 2000/32000FT AGL
14/18 A3 ISOL CB 6000/27000FT AGL
SECN II
PSYS: N4140 E04457 H 1010HPA STNR WKN
WIND/T: 2000FT VRB/03KT PS16
5000FT 210/07KT PS20
10000FT A1 A4 A5 140/08KT PS10
10000FT A2 040/17KT PS10
10000FT A3 320/16KT PS10
15000FT VRB/10KT PS02
CLD: A1 A5 SCT SC 2000/5000FT AGL
A3 SCT AC 8000/12000FT AGL
FZLVL: 15400FT AGL
MNM QNH: 1004HPA
VA: NIL=